Time,TemperatureF,DewpointF,PressureIn,WindDirection,WindDirectionDegrees,WindSpeedMPH,WindSpeedGustMPH,Humidity,HourlyPrecipIn,Conditions,Clouds,dailyrainin,SoftwareType,DateUTC
2013-07-15 00:00:00,72.7,71.5,30.21,NW,313,0.0,0.0,96,0.00,,,0.01,LWC V2.00 B2112,2013-07-15 04:00:00,
2013-07-15 00:05:00,72.5,71.3,30.21,NW,313,0.0,0.0,96,0.00,,,0.01,LWC V2.00 B2112,2013-07-15 04:05:00,
2013-07-15 00:10:00,72.5,71.3,30.21,NW,313,0.0,0.0,96,0.00,,,0.01,LWC V2.00 B2112,2013-07-15 04:10:00,
2013-07-15 00:15:00,72.3,71.1,30.21,NW,313,0.0,0.0,96,0.00,,,0.01,LWC V2.00 B2112,2013-07-15 04:15:00,
2013-07-15 00:20:00,72.3,71.1,30.21,NW,313,0.0,0.0,96,0.00,,,0.01,LWC V2.00 B2112,2013-07-15 04:20:00,
2013-07-15 00:25:00,72.1,70.9,30.21,NW,313,0.0,0.0,96,0.00,,,0.01,LWC V2.00 B2112,2013-07-15 04:25:00,
2013-07-15 00:30:00,72.1,70.9,30.21,NW,313,0.0,0.0,96,0.00,,,0.01,LWC V2.00 B2112,2013-07-15 04:30:00,
2013-07-15 00:35:00,72.0,70.8,30.21,NW,313,0.0,0.0,96,0.00,,,0.01,LWC V2.00 B2112,2013-07-15 04:35:00,
2013-07-15 00:40:00,72.0,71.1,30.21,NW,313,0.0,0.0,97,0.00,,,0.01,LWC V2.00 B2112,2013-07-15 04:40:00,
2013-07-15 00:45:00,72.0,71.1,30.22,NW,313,0.0,0.0,97,0.00,,,0.00,LWC V2.00 B2112,2013-07-15 04:45:00,
2013-07-15 00:50:00,72.0,71.1,30.22,NW,313,0.0,0.0,97,0.00,,,0.00,LWC V2.00 B2112,2013-07-15 04:50:00,
2013-07-15 00:55:00,71.8,70.9,30.22,NW,313,0.0,0.0,97,0.00,,,0.00,LWC V2.00 B2112,2013-07-15 04:55:00,
2013-07-15 01:00:00,71.8,70.9,30.21,NW,313,0.0,0.0,97,0.00,,,0.00,LWC V2.00 B2112,2013-07-15 05:00:00,
2013-07-15 01:05:00,71.8,70.9,30.21,NW,313,0.0,0.0,97,0.00,,,0.00,LWC V2.00 B2112,2013-07-15 05:05:00,
2013-07-15 01:10:00,71.8,70.9,30.21,NW,313,0.0,0.0,97,0.00,,,0.00,LWC V2.00 B2112,2013-07-15 05:10:00,
2013-07-15 01:15:00,71.8,70.9,30.21,NW,313,0.0,0.0,97,0.00,,,0.00,LWC V2.00 B2112,2013-07-15 05:15:00,
2013-07-15 01:20:00,71.8,70.9,30.21,NW,313,0.0,0.0,97,0.00,,,0.00,LWC V2.00 B2112,2013-07-15 05:20:00,
2013-07-15 01:25:00,71.8,70.9,30.21,NW,313,0.0,0.0,97,0.00,,,0.00,LWC V2.00 B2112,2013-07-15 05:25:00,
2013-07-15 01:30:00,71.6,70.7,30.21,NW,313,0.0,0.0,97,0.00,,,0.00,LWC V2.00 B2112,2013-07-15 05:30:00,
2013-07-15 01:35:00,71.6,70.7,30.21,NW,313,0.0,0.0,97,0.00,,,0.00,LWC V2.00 B2112,2013-07-15 05:35:00,
2013-07-15 01:40:00,71.5,70.6,30.21,NW,313,0.0,0.0,97,0.00,,,0.00,LWC V2.00 B2112,2013-07-15 05:40:00,
2013-07-15 01:45:00,71.5,70.6,30.21,NW,313,0.0,0.0,97,0.00,,,0.00,LWC V2.00 B2112,2013-07-15 05:45:00,
2013-07-15 01:50:00,71.3,70.4,30.21,NW,313,0.0,0.0,97,0.00,,,0.00,LWC V2.00 B2112,2013-07-15 05:50:00,
2013-07-15 01:55:00,71.3,70.4,30.21,NW,313,0.0,0.0,97,0.00,,,0.00,LWC V2.00 B2112,2013-07-15 05:55:00,
2013-07-15 02:00:00,71.1,70.2,30.21,NW,313,0.0,0.0,97,0.00,,,0.00,LWC V2.00 B2112,2013-07-15 06:00:00,
2013-07-15 02:05:00,71.1,70.2,30.21,NW,313,0.0,0.0,97,0.00,,,0.00,LWC V2.00 B2112,2013-07-15 06:05:00,
2013-07-15 02:10:00,71.1,70.5,30.21,NW,313,0.0,0.0,98,0.00,,,0.00,LWC V2.00 B2112,2013-07-15 06:10:00,
2013-07-15 02:20:00,71.1,70.5,30.21,NW,313,0.0,0.0,98,0.00,,,0.00,LWC V2.00 B2112,2013-07-15 06:20:00,
2013-07-15 02:25:00,70.9,70.3,30.21,NW,313,0.0,0.0,98,0.00,,,0.00,LWC V2.00 B2112,2013-07-15 06:25:00,
2013-07-15 02:30:00,70.8,70.2,30.21,NW,313,0.0,0.0,98,0.00,,,0.00,LWC V2.00 B2112,2013-07-15 06:30:00,
2013-07-15 02:35:00,70.8,70.2,30.21,NW,313,0.0,0.0,98,0.00,,,0.00,LWC V2.00 B2112,2013-07-15 06:35:00,
2013-07-15 02:40:00,70.6,70.0,30.21,NW,313,0.0,0.0,98,0.00,,,0.00,LWC V2.00 B2112,2013-07-15 06:40:00,
2013-07-15 02:45:00,70.6,70.0,30.21,NW,313,0.0,0.0,98,0.00,,,0.00,LWC V2.00 B2112,2013-07-15 06:45:00,
2013-07-15 02:50:00,70.4,69.8,30.21,NW,313,0.0,0.0,98,0.00,,,0.00,LWC V2.00 B2112,2013-07-15 06:50:00,
2013-07-15 02:55:00,70.4,69.8,30.21,NW,313,0.0,0.0,98,0.00,,,0.00,LWC V2.00 B2112,2013-07-15 06:55:00,
2013-07-15 03:00:00,70.4,69.8,30.21,NW,313,0.0,0.0,98,0.00,,,0.00,LWC V2.00 B2112,2013-07-15 07:00:00,
2013-07-15 03:05:00,70.3,69.7,30.21,NW,313,0.0,0.0,98,0.00,,,0.00,LWC V2.00 B2112,2013-07-15 07:05:00,
2013-07-15 03:10:00,70.3,69.7,30.21,NW,313,0.0,0.0,98,0.00,,,0.00,LWC V2.00 B2112,2013-07-15 07:10:00,
2013-07-15 03:15:00,70.3,69.7,30.21,NW,313,0.0,0.0,98,0.00,,,0.00,LWC V2.00 B2112,2013-07-15 07:15:00,
2013-07-15 03:20:00,70.6,70.0,30.21,NW,313,0.0,0.0,98,0.00,,,0.00,LWC V2.00 B2112,2013-07-15 07:20:00,
2013-07-15 03:25:00,70.6,70.3,30.21,NW,313,0.0,0.0,99,0.00,,,0.00,LWC V2.00 B2112,2013-07-15 07:25:00,
2013-07-15 03:30:00,70.6,70.0,30.21,NW,313,0.0,0.0,98,0.00,,,0.00,LWC V2.00 B2112,2013-07-15 07:30:00,
2013-07-15 03:35:00,70.4,69.8,30.21,NW,313,0.0,0.0,98,0.00,,,0.00,LWC V2.00 B2112,2013-07-15 07:35:00,
2013-07-15 03:40:00,70.3,69.7,30.21,NW,313,0.0,0.0,98,0.00,,,0.00,LWC V2.00 B2112,2013-07-15 07:40:00,
2013-07-15 03:45:00,70.3,70.0,30.21,NW,313,0.0,0.0,99,0.00,,,0.00,LWC V2.00 B2112,2013-07-15 07:45:00,
2013-07-15 03:50:00,70.3,70.0,30.21,NW,313,0.0,0.0,99,0.00,,,0.00,LWC V2.00 B2112,2013-07-15 07:50:00,
2013-07-15 03:55:00,70.4,70.1,30.21,NW,313,0.0,0.0,99,0.00,,,0.00,LWC V2.00 B2112,2013-07-15 07:55:00,
2013-07-15 04:00:00,70.4,70.1,30.21,NW,313,0.0,0.0,99,0.00,,,0.00,LWC V2.00 B2112,2013-07-15 08:00:00,
2013-07-15 04:05:00,70.3,70.0,30.21,NW,313,0.0,0.0,99,0.00,,,0.00,LWC V2.00 B2112,2013-07-15 08:05:00,
2013-07-15 04:10:00,70.3,70.0,30.21,NW,313,0.0,0.0,99,0.00,,,0.00,LWC V2.00 B2112,2013-07-15 08:10:00,
2013-07-15 04:15:00,70.3,70.0,30.21,NW,313,0.0,0.0,99,0.00,,,0.00,LWC V2.00 B2112,2013-07-15 08:15:00,
2013-07-15 04:20:00,70.3,70.0,30.21,NW,313,0.0,0.0,99,0.00,,,0.00,LWC V2.00 B2112,2013-07-15 08:20:00,
2013-07-15 04:25:00,70.1,69.8,30.21,NW,313,0.0,0.0,99,0.00,,,0.00,LWC V2.00 B2112,2013-07-15 08:25:00,
2013-07-15 04:30:00,70.3,70.0,30.21,NW,313,0.0,0.0,99,0.00,,,0.00,LWC V2.00 B2112,2013-07-15 08:30:00,
2013-07-15 04:40:00,70.4,70.1,30.21,NW,313,0.0,0.0,99,0.00,,,0.00,LWC V2.00 B2112,2013-07-15 08:40:00,
2013-07-15 04:45:00,70.3,70.0,30.21,NW,313,0.0,0.0,99,0.00,,,0.00,LWC V2.00 B2112,2013-07-15 08:45:00,
2013-07-15 04:50:00,70.1,69.8,30.21,NW,313,0.0,0.0,99,0.00,,,0.00,LWC V2.00 B2112,2013-07-15 08:50:00,
2013-07-15 04:55:00,69.9,69.6,30.21,NW,313,0.0,0.0,99,0.00,,,0.00,LWC V2.00 B2112,2013-07-15 08:55:00,
2013-07-15 05:00:00,69.8,69.5,30.21,NW,313,0.0,0.0,99,0.00,,,0.00,LWC V2.00 B2112,2013-07-15 09:00:00,
2013-07-15 05:05:00,69.9,69.6,30.21,NW,313,0.0,0.0,99,0.00,,,0.00,LWC V2.00 B2112,2013-07-15 09:05:00,
2013-07-15 05:10:00,69.8,69.5,30.21,NW,313,0.0,0.0,99,0.00,,,0.00,LWC V2.00 B2112,2013-07-15 09:10:00,
2013-07-15 05:15:00,69.8,69.5,30.21,NW,313,0.0,0.0,99,0.00,,,0.00,LWC V2.00 B2112,2013-07-15 09:15:00,
2013-07-15 05:20:00,69.6,69.3,30.21,NW,313,0.0,0.0,99,0.00,,,0.00,LWC V2.00 B2112,2013-07-15 09:20:00,
2013-07-15 05:25:00,69.6,69.3,30.21,NW,313,0.0,0.0,99,0.00,,,0.00,LWC V2.00 B2112,2013-07-15 09:25:00,
2013-07-15 05:30:00,69.6,69.3,30.21,NW,313,0.0,0.0,99,0.00,,,0.00,LWC V2.00 B2112,2013-07-15 09:30:00,
2013-07-15 05:35:00,69.6,69.3,30.21,NW,313,0.0,0.0,99,0.00,,,0.00,LWC V2.00 B2112,2013-07-15 09:35:00,
2013-07-15 05:40:00,69.4,69.1,30.21,NW,313,0.0,0.0,99,0.00,,,0.00,LWC V2.00 B2112,2013-07-15 09:40:00,
2013-07-15 05:45:00,69.4,69.1,30.21,NW,313,0.0,0.0,99,0.00,,,0.00,LWC V2.00 B2112,2013-07-15 09:45:00,
2013-07-15 05:50:00,69.3,69.0,30.21,NW,313,0.0,0.0,99,0.00,,,0.00,LWC V2.00 B2112,2013-07-15 09:50:00,
2013-07-15 05:55:00,69.3,69.0,30.21,NW,313,0.0,0.0,99,0.00,,,0.00,LWC V2.00 B2112,2013-07-15 09:55:00,
2013-07-15 06:00:00,69.1,68.8,30.21,NW,313,0.0,0.0,99,0.00,,,0.00,LWC V2.00 B2112,2013-07-15 10:00:00,
2013-07-15 06:05:00,69.1,68.8,30.21,NW,313,0.0,0.0,99,0.00,,,0.00,LWC V2.00 B2112,2013-07-15 10:05:00,
2013-07-15 06:10:00,69.1,68.8,30.21,NW,313,0.0,0.0,99,0.00,,,0.00,LWC V2.00 B2112,2013-07-15 10:10:00,
2013-07-15 06:15:00,69.3,69.3,30.21,NW,313,0.0,0.0,100,0.00,,,0.00,LWC V2.00 B2112,2013-07-15 10:15:00,
2013-07-15 06:20:00,69.1,69.1,30.21,NW,313,0.0,0.0,100,0.00,,,0.00,LWC V2.00 B2112,2013-07-15 10:20:00,
2013-07-15 06:25:00,69.1,69.1,30.21,NW,313,0.0,0.0,100,0.00,,,0.00,LWC V2.00 B2112,2013-07-15 10:25:00,
2013-07-15 06:30:00,69.1,69.1,30.22,NW,313,0.0,0.0,100,0.00,,,0.00,LWC V2.00 B2112,2013-07-15 10:30:00,
2013-07-15 06:35:00,69.1,69.1,30.22,NW,313,0.0,0.0,100,0.00,,,0.00,LWC V2.00 B2112,2013-07-15 10:35:00,
2013-07-15 06:40:00,69.1,69.1,30.22,NW,313,0.0,0.0,100,0.00,,,0.00,LWC V2.00 B2112,2013-07-15 10:40:00,
2013-07-15 06:45:00,69.1,69.1,30.22,NW,313,0.0,0.0,100,0.00,,,0.00,LWC V2.00 B2112,2013-07-15 10:45:00,
2013-07-15 06:50:00,69.3,69.3,30.22,NW,313,0.0,0.0,100,0.00,,,0.00,LWC V2.00 B2112,2013-07-15 10:50:00,
2013-07-15 06:55:00,69.3,69.3,30.22,NW,313,0.0,0.0,100,0.00,,,0.00,LWC V2.00 B2112,2013-07-15 10:55:00,
2013-07-15 07:00:00,69.4,69.4,30.23,NW,313,0.0,0.0,100,0.00,,,0.00,LWC V2.00 B2112,2013-07-15 11:00:00,
2013-07-15 07:05:00,69.4,69.4,30.23,NW,313,0.0,0.0,100,0.00,,,0.00,LWC V2.00 B2112,2013-07-15 11:05:00,
2013-07-15 07:10:00,69.8,69.8,30.23,NW,313,0.0,0.0,100,0.00,,,0.00,LWC V2.00 B2112,2013-07-15 11:10:00,
2013-07-15 07:15:00,70.1,70.1,30.23,NW,313,0.0,0.0,100,0.00,,,0.00,LWC V2.00 B2112,2013-07-15 11:15:00,
2013-07-15 07:20:00,70.3,70.3,30.23,NW,313,0.0,0.0,100,0.00,,,0.00,LWC V2.00 B2112,2013-07-15 11:20:00,
2013-07-15 07:25:00,70.4,70.4,30.23,NW,313,0.0,0.0,100,0.00,,,0.00,LWC V2.00 B2112,2013-07-15 11:25:00,
2013-07-15 07:30:00,70.6,70.6,30.23,NW,313,0.0,0.0,100,0.00,,,0.00,LWC V2.00 B2112,2013-07-15 11:30:00,
2013-07-15 07:35:00,70.8,70.8,30.23,NW,313,0.0,0.0,100,0.00,,,0.00,LWC V2.00 B2112,2013-07-15 11:35:00,
2013-07-15 07:40:00,71.1,71.1,30.23,NW,313,0.0,0.0,100,0.00,,,0.00,LWC V2.00 B2112,2013-07-15 11:40:00,
2013-07-15 07:45:00,71.5,71.5,30.23,NW,313,0.0,0.0,100,0.00,,,0.00,LWC V2.00 B2112,2013-07-15 11:45:00,
2013-07-15 07:50:00,71.6,71.6,30.23,NW,313,0.0,0.0,100,0.00,,,0.00,LWC V2.00 B2112,2013-07-15 11:50:00,
2013-07-15 07:55:00,71.8,71.8,30.23,NW,313,0.0,0.0,100,0.00,,,0.00,LWC V2.00 B2112,2013-07-15 11:55:00,
2013-07-15 08:00:00,72.0,72.0,30.24,NW,313,0.0,0.0,100,0.00,,,0.00,LWC V2.00 B2112,2013-07-15 12:00:00,
2013-07-15 08:05:00,72.1,72.1,30.24,NW,313,0.0,0.0,100,0.00,,,0.00,LWC V2.00 B2112,2013-07-15 12:05:00,
2013-07-15 08:10:00,72.5,72.5,30.24,NW,313,0.0,0.0,100,0.00,,,0.00,LWC V2.00 B2112,2013-07-15 12:10:00,
2013-07-15 08:15:00,72.8,72.8,30.24,NW,313,0.0,0.0,100,0.00,,,0.00,LWC V2.00 B2112,2013-07-15 12:15:00,
2013-07-15 08:20:00,73.5,73.5,30.24,NW,313,0.0,0.0,100,0.00,,,0.00,LWC V2.00 B2112,2013-07-15 12:20:00,
2013-07-15 08:25:00,74.0,74.0,30.24,NW,313,0.0,0.0,100,0.00,,,0.00,LWC V2.00 B2112,2013-07-15 12:25:00,
2013-07-15 08:30:00,74.0,74.0,30.24,NW,313,0.0,0.0,100,0.00,,,0.00,LWC V2.00 B2112,2013-07-15 12:30:00,
2013-07-15 08:35:00,74.6,74.6,30.24,NW,313,0.0,0.0,100,0.00,,,0.00,LWC V2.00 B2112,2013-07-15 12:35:00,
2013-07-15 08:40:00,74.7,74.7,30.24,NW,313,0.0,0.0,100,0.00,,,0.00,LWC V2.00 B2112,2013-07-15 12:40:00,
2013-07-15 08:45:00,75.3,75.3,30.24,NW,313,0.0,0.0,100,0.00,,,0.00,LWC V2.00 B2112,2013-07-15 12:45:00,
2013-07-15 08:50:00,76.0,76.0,30.24,NW,313,0.0,0.0,100,0.00,,,0.00,LWC V2.00 B2112,2013-07-15 12:50:00,
2013-07-15 08:55:00,76.3,76.3,30.24,East,82,0.0,0.0,100,0.00,,,0.00,LWC V2.00 B2112,2013-07-15 12:55:00,
2013-07-15 09:00:00,76.5,76.5,30.24,East,82,0.0,0.0,100,0.00,,,0.00,LWC V2.00 B2112,2013-07-15 13:00:00,
2013-07-15 09:05:00,76.5,76.5,30.24,East,82,0.0,0.0,100,0.00,,,0.00,LWC V2.00 B2112,2013-07-15 13:05:00,
2013-07-15 09:10:00,76.8,76.8,30.24,East,82,0.0,0.0,100,0.00,,,0.00,LWC V2.00 B2112,2013-07-15 13:10:00,
2013-07-15 09:15:00,77.6,77.3,30.24,East,82,0.0,0.0,99,0.00,,,0.00,LWC V2.00 B2112,2013-07-15 13:15:00,
2013-07-15 09:20:00,77.9,76.7,30.24,East,82,0.0,0.0,96,0.00,,,0.00,LWC V2.00 B2112,2013-07-15 13:20:00,
2013-07-15 09:25:00,77.4,74.9,30.24,East,82,0.0,0.0,92,0.00,,,0.00,LWC V2.00 B2112,2013-07-15 13:25:00,
2013-07-15 09:30:00,77.9,75.7,30.24,East,82,0.0,0.0,93,0.00,,,0.00,LWC V2.00 B2112,2013-07-15 13:30:00,
2013-07-15 09:35:00,78.6,75.7,30.24,South,180,0.0,0.0,91,0.00,,,0.00,LWC V2.00 B2112,2013-07-15 13:35:00,
2013-07-15 09:40:00,78.6,73.3,30.24,SSW,207,0.0,0.0,84,0.00,,,0.00,LWC V2.00 B2112,2013-07-15 13:40:00,
2013-07-15 09:50:00,80.3,74.6,30.24,SSW,207,0.0,0.0,83,0.00,,,0.00,LWC V2.00 B2112,2013-07-15 13:50:00,
2013-07-15 09:55:00,80.9,73.8,30.24,West,267,0.0,0.0,79,0.00,,,0.00,LWC V2.00 B2112,2013-07-15 13:55:00,
2013-07-15 10:00:00,81.1,74.3,30.24,SSE,156,0.0,0.0,80,0.00,,,0.00,LWC V2.00 B2112,2013-07-15 14:00:00,
2013-07-15 10:05:00,81.1,73.6,30.24,SSE,156,0.0,0.0,78,0.00,,,0.00,LWC V2.00 B2112,2013-07-15 14:05:00,
2013-07-15 10:10:00,80.9,72.6,30.24,SSE,156,0.0,0.0,76,0.00,,,0.00,LWC V2.00 B2112,2013-07-15 14:10:00,
2013-07-15 10:15:00,80.7,72.4,30.24,SSE,156,0.0,0.0,76,0.00,,,0.00,LWC V2.00 B2112,2013-07-15 14:15:00,
2013-07-15 10:20:00,80.9,73.8,30.24,SSE,156,0.0,0.0,79,0.00,,,0.00,LWC V2.00 B2112,2013-07-15 14:20:00,
2013-07-15 10:25:00,81.2,72.9,30.24,SSE,156,0.0,0.0,76,0.00,,,0.00,LWC V2.00 B2112,2013-07-15 14:25:00,
2013-07-15 10:30:00,82.4,73.7,30.24,SSE,156,0.0,0.0,75,0.00,,,0.00,LWC V2.00 B2112,2013-07-15 14:30:00,
2013-07-15 10:35:00,82.8,72.0,30.24,SSE,156,0.0,0.0,70,0.00,,,0.00,LWC V2.00 B2112,2013-07-15 14:35:00,
2013-07-15 10:40:00,82.2,73.1,30.24,SSE,156,0.0,0.0,74,0.00,,,0.00,LWC V2.00 B2112,2013-07-15 14:40:00,
2013-07-15 10:45:00,82.4,73.7,30.24,SSE,156,0.0,0.0,75,0.00,,,0.00,LWC V2.00 B2112,2013-07-15 14:45:00,
2013-07-15 10:55:00,83.6,71.9,30.24,SSE,156,0.0,0.0,68,0.00,,,0.00,LWC V2.00 B2112,2013-07-15 14:55:00,
2013-07-15 11:05:00,84.7,74.2,30.24,SSE,166,0.0,0.0,71,0.00,,,0.00,LWC V2.00 B2112,2013-07-15 15:05:00,
2013-07-15 11:10:00,84.3,73.4,30.24,SSE,166,0.0,0.0,70,0.00,,,0.00,LWC V2.00 B2112,2013-07-15 15:10:00,
2013-07-15 11:15:00,84.7,72.5,30.24,SSE,166,0.0,0.0,67,0.00,,,0.00,LWC V2.00 B2112,2013-07-15 15:15:00,
2013-07-15 11:25:00,84.5,72.3,30.24,SSE,166,0.0,0.0,67,0.00,,,0.00,LWC V2.00 B2112,2013-07-15 15:25:00,
2013-07-15 11:30:00,84.3,73.0,30.24,West,259,0.0,0.0,69,0.00,,,0.00,LWC V2.00 B2112,2013-07-15 15:30:00,
2013-07-15 11:35:00,84.5,72.7,30.24,West,259,0.0,0.0,68,0.00,,,0.00,LWC V2.00 B2112,2013-07-15 15:35:00,
2013-07-15 11:40:00,85.3,73.9,30.24,SSW,205,0.0,0.0,69,0.00,,,0.00,LWC V2.00 B2112,2013-07-15 15:40:00,
2013-07-15 11:45:00,85.7,73.0,30.24,SSW,205,0.0,0.0,66,0.00,,,0.00,LWC V2.00 B2112,2013-07-15 15:45:00,
2013-07-15 11:50:00,85.7,71.6,30.24,SW,220,0.0,0.0,63,0.00,,,0.00,LWC V2.00 B2112,2013-07-15 15:50:00,
2013-07-15 11:55:00,86.1,72.0,30.24,SW,220,0.0,0.0,63,0.00,,,0.00,LWC V2.00 B2112,2013-07-15 15:55:00,
2013-07-15 12:00:00,86.3,71.7,30.24,SW,219,0.0,0.0,62,0.00,,,0.00,LWC V2.00 B2112,2013-07-15 16:00:00,
2013-07-15 12:05:00,86.3,72.7,30.24,SW,219,0.0,0.0,64,0.00,,,0.00,LWC V2.00 B2112,2013-07-15 16:05:00,
2013-07-15 12:10:00,86.3,71.2,30.24,NW,317,0.0,0.0,61,0.00,,,0.00,LWC V2.00 B2112,2013-07-15 16:10:00,
2013-07-15 12:15:00,86.1,74.3,30.24,NW,319,0.0,0.0,68,0.00,,,0.00,LWC V2.00 B2112,2013-07-15 16:15:00,
2013-07-15 12:20:00,86.3,73.6,30.24,NW,319,0.0,0.0,66,0.00,,,0.00,LWC V2.00 B2112,2013-07-15 16:20:00,
2013-07-15 12:25:00,86.3,72.7,30.24,NW,319,0.0,0.0,64,0.00,,,0.00,LWC V2.00 B2112,2013-07-15 16:25:00,
2013-07-15 12:40:00,86.5,69.4,30.24,SSW,201,0.0,0.0,57,0.00,,,0.00,LWC V2.00 B2112,2013-07-15 16:40:00,
2013-07-15 12:45:00,86.7,73.5,30.24,SSW,201,0.0,0.0,65,0.00,,,0.00,LWC V2.00 B2112,2013-07-15 16:45:00,
2013-07-15 12:50:00,86.5,71.4,30.24,SSW,201,0.0,0.0,61,0.00,,,0.00,LWC V2.00 B2112,2013-07-15 16:50:00,
2013-07-15 12:55:00,86.7,70.6,30.24,SSW,201,0.0,0.0,59,0.00,,,0.00,LWC V2.00 B2112,2013-07-15 16:55:00,
2013-07-15 13:15:00,86.5,69.4,30.23,NW,317,0.0,0.0,57,0.00,,,0.00,LWC V2.00 B2112,2013-07-15 17:15:00,
2013-07-15 13:25:00,87.0,70.9,30.23,NW,317,0.0,0.0,59,0.00,,,0.00,LWC V2.00 B2112,2013-07-15 17:25:00,
2013-07-15 13:30:00,87.2,72.1,30.22,NW,317,0.0,0.0,61,0.00,,,0.00,LWC V2.00 B2112,2013-07-15 17:30:00,
2013-07-15 13:40:00,87.4,72.3,30.22,NW,317,0.0,0.0,61,0.00,,,0.00,LWC V2.00 B2112,2013-07-15 17:40:00,
2013-07-15 13:45:00,87.6,71.5,30.21,NE,56,0.0,0.0,59,0.00,,,0.00,LWC V2.00 B2112,2013-07-15 17:45:00,
2013-07-15 13:50:00,87.6,72.5,30.21,North,0,0.0,0.0,61,0.00,,,0.00,LWC V2.00 B2112,2013-07-15 17:50:00,
2013-07-15 13:55:00,87.2,72.6,30.21,North,0,0.0,0.0,62,0.00,,,0.00,LWC V2.00 B2112,2013-07-15 17:55:00,
2013-07-15 14:00:00,87.4,70.3,30.21,WNW,297,0.0,0.0,57,0.00,,,0.00,LWC V2.00 B2112,2013-07-15 18:00:00,
2013-07-15 14:05:00,87.6,71.5,30.21,WNW,297,0.0,0.0,59,0.00,,,0.00,LWC V2.00 B2112,2013-07-15 18:05:00,
2013-07-15 14:10:00,86.7,70.6,30.21,WNW,282,0.0,0.0,59,0.00,,,0.00,LWC V2.00 B2112,2013-07-15 18:10:00,
2013-07-15 14:15:00,86.5,70.4,30.21,WNW,282,0.0,0.0,59,0.00,,,0.00,LWC V2.00 B2112,2013-07-15 18:15:00,
2013-07-15 14:20:00,86.5,71.4,30.21,ENE,78,0.0,0.0,61,0.00,,,0.00,LWC V2.00 B2112,2013-07-15 18:20:00,
2013-07-15 14:30:00,87.4,71.3,30.20,NE,41,0.0,0.0,59,0.00,,,0.00,LWC V2.00 B2112,2013-07-15 18:30:00,
2013-07-15 14:45:00,87.2,72.6,30.19,NE,42,0.0,0.0,62,0.00,,,0.00,LWC V2.00 B2112,2013-07-15 18:45:00,
2013-07-15 14:50:00,87.4,72.7,30.19,NE,42,0.0,0.0,62,0.00,,,0.00,LWC V2.00 B2112,2013-07-15 18:50:00,
2013-07-15 14:55:00,87.0,70.4,30.19,NE,42,0.0,0.0,58,0.00,,,0.00,LWC V2.00 B2112,2013-07-15 18:55:00,
2013-07-15 15:00:00,86.5,70.9,30.19,NE,42,0.0,0.0,60,0.00,,,0.00,LWC V2.00 B2112,2013-07-15 19:00:00,
2013-07-15 15:05:00,87.0,70.9,30.19,NE,47,0.0,0.0,59,0.00,,,0.00,LWC V2.00 B2112,2013-07-15 19:05:00,
2013-07-15 15:10:00,87.4,72.7,30.19,NE,47,0.0,0.0,62,0.00,,,0.00,LWC V2.00 B2112,2013-07-15 19:10:00,
2013-07-15 15:20:00,87.2,72.6,30.19,NE,47,0.0,0.0,62,0.00,,,0.00,LWC V2.00 B2112,2013-07-15 19:20:00,
2013-07-15 15:25:00,86.3,71.7,30.19,NE,47,0.0,0.0,62,0.00,,,0.00,LWC V2.00 B2112,2013-07-15 19:25:00,
2013-07-15 15:30:00,86.1,70.6,30.19,NE,53,0.0,0.0,60,0.00,,,0.00,LWC V2.00 B2112,2013-07-15 19:30:00,
2013-07-15 15:35:00,87.2,70.6,30.19,SE,140,0.0,0.0,58,0.00,,,0.00,LWC V2.00 B2112,2013-07-15 19:35:00,
2013-07-15 15:40:00,88.2,74.9,30.19,NE,54,0.0,0.0,65,0.00,,,0.00,LWC V2.00 B2112,2013-07-15 19:40:00,
2013-07-15 15:45:00,87.8,71.7,30.19,NE,52,0.0,0.0,59,0.00,,,0.00,LWC V2.00 B2112,2013-07-15 19:45:00,
2013-07-15 15:50:00,86.5,72.4,30.19,WSW,249,0.0,0.0,63,0.00,,,0.00,LWC V2.00 B2112,2013-07-15 19:50:00,
2013-07-15 15:55:00,85.3,70.8,30.19,WSW,249,0.0,0.0,62,0.00,,,0.00,LWC V2.00 B2112,2013-07-15 19:55:00,
2013-07-15 16:00:00,84.5,72.3,30.19,WSW,249,0.0,0.0,67,0.00,,,0.00,LWC V2.00 B2112,2013-07-15 20:00:00,
2013-07-15 16:05:00,84.9,73.6,30.19,WSW,249,0.0,0.0,69,0.00,,,0.00,LWC V2.00 B2112,2013-07-15 20:05:00,
2013-07-15 16:10:00,85.9,69.9,30.19,WSW,252,0.0,0.0,59,0.00,,,0.00,LWC V2.00 B2112,2013-07-15 20:10:00,
2013-07-15 16:15:00,87.2,74.0,30.19,WSW,253,0.0,0.0,65,0.00,,,0.00,LWC V2.00 B2112,2013-07-15 20:15:00,
2013-07-15 16:20:00,87.6,70.4,30.19,NE,43,0.0,0.0,57,0.00,,,0.00,LWC V2.00 B2112,2013-07-15 20:20:00,
2013-07-15 16:25:00,87.2,69.6,30.19,ESE,108,0.0,0.0,56,0.00,,,0.00,LWC V2.00 B2112,2013-07-15 20:25:00,
2013-07-15 16:30:00,87.2,70.6,30.19,ESE,108,0.0,0.0,58,0.00,,,0.00,LWC V2.00 B2112,2013-07-15 20:30:00,
2013-07-15 16:40:00,87.8,71.7,30.19,SE,126,0.0,0.0,59,0.00,,,0.00,LWC V2.00 B2112,2013-07-15 20:40:00,
2013-07-15 16:45:00,88.2,74.0,30.19,SE,126,0.0,0.0,63,0.00,,,0.00,LWC V2.00 B2112,2013-07-15 20:45:00,
2013-07-15 16:50:00,88.4,73.7,30.19,SE,126,0.0,0.0,62,0.00,,,0.00,LWC V2.00 B2112,2013-07-15 20:50:00,
2013-07-15 16:55:00,88.6,72.4,30.19,SE,125,0.0,0.0,59,0.00,,,0.00,LWC V2.00 B2112,2013-07-15 20:55:00,
2013-07-15 17:00:00,88.0,70.8,30.18,SE,125,0.0,0.0,57,0.00,,,0.00,LWC V2.00 B2112,2013-07-15 21:00:00,
2013-07-15 17:05:00,87.0,73.3,30.18,SE,125,0.0,0.0,64,0.00,,,0.00,LWC V2.00 B2112,2013-07-15 21:05:00,
2013-07-15 17:10:00,86.7,74.4,30.18,SE,125,0.0,0.0,67,0.00,,,0.00,LWC V2.00 B2112,2013-07-15 21:10:00,
2013-07-15 17:20:00,88.0,72.8,30.18,SSE,164,0.0,0.0,61,0.00,,,0.00,LWC V2.00 B2112,2013-07-15 21:20:00,
2013-07-15 17:25:00,88.4,72.2,30.18,West,270,0.0,0.0,59,0.00,,,0.00,LWC V2.00 B2112,2013-07-15 21:25:00,
2013-07-15 17:40:00,88.6,72.9,30.18,West,269,0.0,0.0,60,0.00,,,0.00,LWC V2.00 B2112,2013-07-15 21:40:00,
2013-07-15 17:50:00,88.0,72.3,30.18,West,269,0.0,0.0,60,0.00,,,0.00,LWC V2.00 B2112,2013-07-15 21:50:00,
2013-07-15 17:55:00,87.4,71.3,30.18,West,269,0.0,0.0,59,0.00,,,0.00,LWC V2.00 B2112,2013-07-15 21:55:00,
2013-07-15 18:00:00,86.7,70.6,30.17,West,269,0.0,0.0,59,0.00,,,0.00,LWC V2.00 B2112,2013-07-15 22:00:00,
2013-07-15 18:05:00,87.0,72.4,30.17,West,269,0.0,0.0,62,0.00,,,0.00,LWC V2.00 B2112,2013-07-15 22:05:00,
2013-07-15 18:10:00,87.2,73.0,30.17,West,269,0.0,0.0,63,0.00,,,0.00,LWC V2.00 B2112,2013-07-15 22:10:00,
2013-07-15 18:15:00,87.8,71.1,30.17,West,269,0.0,0.0,58,0.00,,,0.00,LWC V2.00 B2112,2013-07-15 22:15:00,
2013-07-15 18:25:00,88.4,72.7,30.17,West,269,0.0,0.0,60,0.00,,,0.00,LWC V2.00 B2112,2013-07-15 22:25:00,
2013-07-15 18:30:00,88.8,73.1,30.17,West,269,0.0,0.0,60,0.00,,,0.00,LWC V2.00 B2112,2013-07-15 22:30:00,
2013-07-15 18:35:00,88.8,72.1,30.17,West,269,0.0,0.0,58,0.00,,,0.00,LWC V2.00 B2112,2013-07-15 22:35:00,
2013-07-15 18:45:00,88.4,72.2,30.17,West,269,0.0,0.0,59,0.00,,,0.00,LWC V2.00 B2112,2013-07-15 22:45:00,
2013-07-15 18:55:00,88.0,73.3,30.17,West,269,0.0,0.0,62,0.00,,,0.00,LWC V2.00 B2112,2013-07-15 22:55:00,
2013-07-15 19:00:00,87.4,73.2,30.18,West,269,0.0,0.0,63,0.00,,,0.00,LWC V2.00 B2112,2013-07-15 23:00:00,
2013-07-15 19:05:00,86.5,73.3,30.18,West,269,0.0,0.0,65,0.00,,,0.00,LWC V2.00 B2112,2013-07-15 23:05:00,
2013-07-15 19:10:00,85.7,73.4,30.18,West,269,0.0,0.0,67,0.00,,,0.00,LWC V2.00 B2112,2013-07-15 23:10:00,
2013-07-15 19:15:00,85.1,74.2,30.18,SW,231,0.0,0.0,70,0.00,,,0.00,LWC V2.00 B2112,2013-07-15 23:15:00,
2013-07-15 19:20:00,84.7,72.9,30.18,SW,231,0.0,0.0,68,0.00,,,0.00,LWC V2.00 B2112,2013-07-15 23:20:00,
2013-07-15 19:25:00,84.3,72.6,30.18,SW,231,0.0,0.0,68,0.00,,,0.00,LWC V2.00 B2112,2013-07-15 23:25:00,
2013-07-15 19:35:00,83.8,72.5,30.18,SW,231,0.0,0.0,69,0.00,,,0.00,LWC V2.00 B2112,2013-07-15 23:35:00,
2013-07-15 19:40:00,83.4,73.0,30.18,SW,231,0.0,0.0,71,0.00,,,0.00,LWC V2.00 B2112,2013-07-15 23:40:00,
2013-07-15 19:45:00,83.2,72.8,30.18,SW,231,0.0,0.0,71,0.00,,,0.00,LWC V2.00 B2112,2013-07-15 23:45:00,
2013-07-15 19:50:00,82.8,73.2,30.18,SW,231,0.0,0.0,73,0.00,,,0.00,LWC V2.00 B2112,2013-07-15 23:50:00,
2013-07-15 19:55:00,82.4,73.3,30.18,SW,231,0.0,0.0,74,0.00,,,0.00,LWC V2.00 B2112,2013-07-15 23:55:00,
2013-07-15 20:00:00,81.6,72.5,30.18,SW,231,0.0,0.0,74,0.00,,,0.00,LWC V2.00 B2112,2013-07-16 00:00:00,
2013-07-15 20:05:00,81.1,72.8,30.18,SW,231,0.0,0.0,76,0.00,,,0.00,LWC V2.00 B2112,2013-07-16 00:05:00,
2013-07-15 20:10:00,80.5,72.6,30.18,SW,231,0.0,0.0,77,0.00,,,0.00,LWC V2.00 B2112,2013-07-16 00:10:00,
2013-07-15 20:20:00,79.6,73.2,30.18,SW,231,0.0,0.0,81,0.00,,,0.00,LWC V2.00 B2112,2013-07-16 00:20:00,
2013-07-15 20:25:00,79.2,72.8,30.18,SW,231,0.0,0.0,81,0.00,,,0.00,LWC V2.00 B2112,2013-07-16 00:25:00,
2013-07-15 20:35:00,78.3,73.1,30.17,SW,231,0.0,0.0,84,0.00,,,0.00,LWC V2.00 B2112,2013-07-16 00:35:00,
2013-07-15 20:50:00,77.4,73.2,30.17,SW,231,0.0,0.0,87,0.00,,,0.00,LWC V2.00 B2112,2013-07-16 00:50:00,
2013-07-15 20:55:00,77.0,73.2,30.17,SW,231,0.0,0.0,88,0.00,,,0.00,LWC V2.00 B2112,2013-07-16 00:55:00,
2013-07-15 21:05:00,76.5,73.0,30.17,SW,231,0.0,0.0,89,0.00,,,0.00,LWC V2.00 B2112,2013-07-16 01:05:00,
2013-07-15 21:10:00,76.3,73.1,30.17,SW,231,0.0,0.0,90,0.00,,,0.00,LWC V2.00 B2112,2013-07-16 01:10:00,
2013-07-15 21:20:00,76.0,73.5,30.18,SW,231,0.0,0.0,92,0.00,,,0.00,LWC V2.00 B2112,2013-07-16 01:20:00,
2013-07-15 21:25:00,75.8,73.3,30.18,SW,231,0.0,0.0,92,0.00,,,0.00,LWC V2.00 B2112,2013-07-16 01:25:00,
2013-07-15 21:30:00,75.6,73.1,30.18,SW,231,0.0,0.0,92,0.00,,,0.00,LWC V2.00 B2112,2013-07-16 01:30:00,
2013-07-15 21:40:00,75.1,72.6,30.18,SW,231,0.0,0.0,92,0.00,,,0.00,LWC V2.00 B2112,2013-07-16 01:40:00,
2013-07-15 21:45:00,74.9,72.4,30.18,SW,231,0.0,0.0,92,0.00,,,0.00,LWC V2.00 B2112,2013-07-16 01:45:00,
2013-07-15 21:50:00,74.7,72.2,30.18,SW,231,0.0,0.0,92,0.00,,,0.00,LWC V2.00 B2112,2013-07-16 01:50:00,
2013-07-15 21:55:00,74.6,72.1,30.18,SW,231,0.0,0.0,92,0.00,,,0.00,LWC V2.00 B2112,2013-07-16 01:55:00,
2013-07-15 22:00:00,74.6,72.4,30.18,SW,231,0.0,0.0,93,0.00,,,0.00,LWC V2.00 B2112,2013-07-16 02:00:00,
2013-07-15 22:05:00,74.6,72.8,30.18,SW,231,0.0,0.0,94,0.00,,,0.00,LWC V2.00 B2112,2013-07-16 02:05:00,
2013-07-15 22:10:00,74.4,72.6,30.18,SW,231,0.0,0.0,94,0.00,,,0.00,LWC V2.00 B2112,2013-07-16 02:10:00,
2013-07-15 22:15:00,74.2,72.4,30.18,SW,231,0.0,0.0,94,0.00,,,0.00,LWC V2.00 B2112,2013-07-16 02:15:00,
2013-07-15 22:20:00,74.2,72.7,30.18,SW,231,0.0,0.0,95,0.00,,,0.00,LWC V2.00 B2112,2013-07-16 02:20:00,
2013-07-15 22:25:00,74.2,72.7,30.18,SW,231,0.0,0.0,95,0.00,,,0.00,LWC V2.00 B2112,2013-07-16 02:25:00,
2013-07-15 22:30:00,74.0,72.8,30.18,SW,231,0.0,0.0,96,0.00,,,0.00,LWC V2.00 B2112,2013-07-16 02:30:00,
2013-07-15 22:35:00,74.0,72.8,30.18,SW,231,0.0,0.0,96,0.00,,,0.00,LWC V2.00 B2112,2013-07-16 02:35:00,
2013-07-15 22:55:00,73.5,72.3,30.18,SW,231,0.0,0.0,96,0.00,,,0.00,LWC V2.00 B2112,2013-07-16 02:55:00,
2013-07-15 23:00:00,73.3,72.1,30.17,SW,231,0.0,0.0,96,0.00,,,0.00,LWC V2.00 B2112,2013-07-16 03:00:00,
2013-07-15 23:05:00,73.2,72.0,30.17,SW,231,0.0,0.0,96,0.00,,,0.00,LWC V2.00 B2112,2013-07-16 03:05:00,
2013-07-15 23:20:00,72.7,71.5,30.17,SW,231,0.0,0.0,96,0.00,,,0.00,LWC V2.00 B2112,2013-07-16 03:20:00,
2013-07-15 23:25:00,72.3,71.1,30.17,SW,231,0.0,0.0,96,0.00,,,0.00,LWC V2.00 B2112,2013-07-16 03:25:00,
2013-07-15 23:30:00,72.1,70.9,30.17,SW,231,0.0,0.0,96,0.00,,,0.00,LWC V2.00 B2112,2013-07-16 03:30:00,
2013-07-15 23:35:00,72.1,70.9,30.17,SW,231,0.0,0.0,96,0.00,,,0.00,LWC V2.00 B2112,2013-07-16 03:35:00,
2013-07-15 23:40:00,72.0,70.8,30.17,SW,231,0.0,0.0,96,0.00,,,0.00,LWC V2.00 B2112,2013-07-16 03:40:00,
2013-07-15 23:45:00,71.8,70.6,30.18,SW,231,0.0,0.0,96,0.00,,,0.00,LWC V2.00 B2112,2013-07-16 03:45:00,
2013-07-15 23:50:00,71.8,70.6,30.18,SW,231,0.0,0.0,96,0.00,,,0.00,LWC V2.00 B2112,2013-07-16 03:50:00,
2013-07-15 23:55:00,71.6,70.4,30.18,SW,231,0.0,0.0,96,0.00,,,0.00,LWC V2.00 B2112,2013-07-16 03:55:00,